AGGH

Details ICAO AGGH (HIR)
Name HONIARA INTL
Region Solomon Islands
Timezone Pacific/Guadalcanal (UTC+11.0)
Plans Departing 69
Arriving 80
Stats Elevation 28 ft / 9 m (AMSL)
Location -9.428258° 160.054534°
Runways 1
Magnetic Variation 8.678° E
Sunrise 2018-05-22 19:28:32 UTC / 2018-05-23 06:28:32 Local
Sunset 2018-05-23 07:07:19 UTC / 2018-05-23 18:07:19 Local
Advertisement - Login to hide

Runways

ID Width Length Bearing (true) Bearing (mag) Surface Threshold Offset Overrun Length
06 148 ft / 45 m 7,232 ft / 2,204 m 67.90° 59.22° Asphalt 0 ft / 0 m 184 ft / 56 m
24 148 ft / 45 m 7,232 ft / 2,204 m 247.90° 239.22° Asphalt 0 ft / 0 m 171 ft / 52 m

Map

Weather


0- 5 10 15 20 25 30 35+ Temperature / ° C

Clouds and Precipitation
Forecast for 2018-05-22 18:00 UTC. Updated 5 hours ago

Ground ~20,000 ft ~40,000 ft Winds

METAR

AGGH 222100Z 11002KT 9999 FEW017 FEW018CB SCT300 25/23 Q1012

TAF

TAF AGGH 221715Z 2218/2318 VRB04KT 9999 FEW017 FM230300 08010KT 9999 SCT019 SCT028 PROB40 INTER 2300/2306 5000 TSSH SCT016 FEW019CB BKN029 T 23 27 30 31 Q 1009 1011 1011 1009

Frequencies

Tower 118.10 MHz INFO
Warning: Do not use this data for real-world aviation or navigation. No guarantee of current accuracy is given.